Terminal Aerodrome Forecast
Issued by NWS Cleveland, OH

Home | Current Version | Previous Version | Text Only | Print | Product List | Glossary Off
Versions: 1 2 3 4 5 6 7 8 9 10 11 12 13 14 15

000
FTUS41 KCLE 290539
TAFYNG
TAF
KYNG 290539Z 2906/3006 15006KT P6SM BKN250
     FM291800 18008KT P6SM VCSH BKN050
     FM292200 18006KT P6SM BKN100=

USA.gov is the U.S. government's official web portal to all federal, state and local government web resources and services.